Wetterdaten Karolingerstr. - 50374 Erftstadt
Wetterdaten: aktuell Donnerstag, 27.01.2022 03:00
Datum Zeit Temp. A. Windchill X Feuchte A. Luftdruck Regen Wind Richtung Richtung Taupunkt Windchill Windben
27.01.2022 03:00 2,0 C 3,7 C 77 % 1028,1 hPa 0,0 l/m 4,2 km/h (1 Bft) S-SW 202 -1,6 C 3,7 C 5,0 km/h (1 Bft)
27.01.2022 02:00 2,1 C 2,4 C 77 % 1028,9 hPa 0,0 l/m 8,4 km/h (2 Bft) S 180 -1,5 C -0,0 C 6,6 km/h (2 Bft)
27.01.2022 01:00 2,4 C 4,6 C 76 % 1029,1 hPa 0,0 l/m 3,7 km/h (1 Bft) S 180 -1,4 C 4,6 C 10,0 km/h (2 Bft)
27.01.2022 00:00 2,3 C 3,8 C 77 % 1029,2 hPa 0,0 l/m 4,8 km/h (1 Bft) S-SO 157 -1,3 C 2,8 C 5,8 km/h (2 Bft)
26.01.2022 23:00 2,3 C 2,8 C 77 % 1029,9 hPa 0,0 l/m 7,9 km/h (2 Bft) S-SW 202 -1,3 C 0,6 C 6,9 km/h (2 Bft)
26.01.2022 22:00 2,3 C 3,0 C 76 % 1030,5 hPa 0,0 l/m 7,2 km/h (2 Bft) S-SW 202 -1,5 C 1,0 C 11,9 km/h (2 Bft)
26.01.2022 21:00 2,4 C 2,9 C 76 % 1031,1 hPa 0,0 l/m 7,6 km/h (2 Bft) W-SW 247 -1,4 C 0,8 C 8,2 km/h (2 Bft)
26.01.2022 20:00 2,5 C 3,5 C 74 % 1031,6 hPa 0,0 l/m 6,6 km/h (2 Bft) SW 225 -1,7 C 1,8 C 7,1 km/h (2 Bft)
26.01.2022 19:00 2,5 C 3,6 C 73 % 1031,7 hPa 0,0 l/m 6,3 km/h (2 Bft) S 180 -1,8 C 2,0 C 7,7 km/h (2 Bft)
26.01.2022 18:00 2,5 C 3,8 C 72 % 1032,2 hPa 0,0 l/m 5,3 km/h (1 Bft) S-SO 157 -2,0 C 2,6 C 6,4 km/h (2 Bft)
26.01.2022 17:00 2,7 C 3,6 C 72 % 1032,2 hPa 0,0 l/m 6,6 km/h (2 Bft) W-SW 247 -1,8 C 1,9 C 9,8 km/h (2 Bft)
26.01.2022 16:00 2,8 C 4,0 C 71 % 1031,9 hPa 0,0 l/m 6,1 km/h (2 Bft) S 180 -1,9 C 2,5 C 9,3 km/h (2 Bft)
26.01.2022 15:00 2,9 C 4,1 C 69 % 1032,7 hPa 0,0 l/m 5,8 km/h (2 Bft) O 90 -2,2 C 2,8 C 7,6 km/h (2 Bft)
26.01.2022 14:00 2,9 C 4,4 C 68 % 1032,9 hPa 0,0 l/m 5,1 km/h (1 Bft) S-SW 202 -2,4 C 3,4 C 4,8 km/h (1 Bft)
26.01.2022 13:00 3,1 C 4,5 C 64 % 1032,8 hPa 0,0 l/m 5,3 km/h (1 Bft) W-SW 247 -3,0 C 3,4 C 5,5 km/h (1 Bft)
26.01.2022 12:00 2,7 C 4,4 C 62 % 1032,7 hPa 0,0 l/m 3,7 km/h (1 Bft) S 180 -3,8 C 4,4 C 4,3 km/h (1 Bft)
26.01.2022 11:00 2,2 C 4,1 C 64 % 1032,8 hPa 0,0 l/m 4,2 km/h (1 Bft) SW 225 -3,9 C 4,1 C 4,2 km/h (1 Bft)
26.01.2022 10:00 2,1 C 4,0 C 64 % 1032,4 hPa 0,0 l/m 3,7 km/h (1 Bft) SW 225 -4,0 C 4,0 C 5,3 km/h (1 Bft)
26.01.2022 09:00 2,0 C 2,6 C 65 % 1031,8 hPa 0,0 l/m 6,8 km/h (2 Bft) SW 225 -3,9 C 0,7 C 6,9 km/h (2 Bft)
26.01.2022 08:00 2,0 C 2,4 C 65 % 1031,7 hPa 0,0 l/m 7,1 km/h (2 Bft) SW 225 -3,9 C 0,4 C 7,4 km/h (2 Bft)
26.01.2022 07:00 2,3 C 2,9 C 64 % 1032,1 hPa 0,0 l/m 6,3 km/h (2 Bft) SW 225 -3,8 C 1,2 C 5,8 km/h (2 Bft)
26.01.2022 06:00 2,3 C 4,5 C 65 % 1031,1 hPa 0,0 l/m 0,3 km/h (0 Bft) S 180 -3,6 C 4,5 C 2,3 km/h (1 Bft)
26.01.2022 05:00 2,4 C 4,4 C 67 % 1031,5 hPa 0,0 l/m 0,0 km/h (0 Bft) S 180 -3,1 C 4,4 C 0,0 km/h (0 Bft)
26.01.2022 04:00 2,7 C 4,7 C 67 % 1031,9 hPa 0,0 l/m 0,2 km/h (0 Bft) O-SO 112 -2,8 C 4,7 C 0,0 km/h (0 Bft)
_ Min-Zeit 08:50 08:00 12:10 03:00 - 04:10 - - 08:50 01:40 04:00
Minimum _ 1,9 C 2,4 C 61 % 1028,1 hPa - 0,0 km/h (0 Bft) - - -4,2 C -0,4 C 0,0 km/h (0 Bft)
_ Max-Zeit 12:50 12:20 23:00 13:20 04:00 01:40 - - 01:20 12:20 01:40
Maximum _ 3,1 C 5,1 C 77 % 1033,1 hPa 0,0 l/m 9,7 km/h
W (2 Bft)
- - -1,2 C 5,1 C 18,5 km/h
W (3 Bft)
Durchschnitt _ 2,5 C 3,8 C 70 % 1031,5 hPa #0,0 l/m 4,7 km/h (1 Bft) S - -2,5 C 2,9 C 5,9 km/h (2 Bft)
Weitere Wetterdaten aus dem Umweltzentrum Friesheimer Busch in Erftstadt unter: http://www.umweltzentrum-erftstadt.de/wetter